sensor_id;sensor_type;location;lat;lon;timestamp;P1;durP1;ratioP1;P2;durP2;ratioP2
35681;SDS011;21805;51.022;4.782;2023-09-08T06:57:39;16.00;;;9.00;;
35681;SDS011;21805;51.022;4.782;2023-09-08T07:00:41;15.40;;;8.27;;
35681;SDS011;21805;51.022;4.782;2023-09-08T07:05:42;15.52;;;7.45;;
35681;SDS011;21805;51.022;4.782;2023-09-08T07:13:58;12.57;;;8.50;;
35681;SDS011;21805;51.022;4.782;2023-09-08T07:16:27;12.80;;;8.32;;
35681;SDS011;21805;51.022;4.782;2023-09-08T07:19:00;9.65;;;7.55;;
35681;SDS011;21805;51.022;4.782;2023-09-08T07:24:02;14.05;;;7.43;;
35681;SDS011;21805;51.022;4.782;2023-09-08T07:27:04;10.70;;;7.20;;
35681;SDS011;21805;51.022;4.782;2023-09-08T07:29:31;11.43;;;6.53;;
35681;SDS011;21805;51.022;4.782;2023-09-08T07:31:58;10.85;;;6.75;;
35681;SDS011;21805;51.022;4.782;2023-09-08T07:34:28;14.23;;;7.45;;
35681;SDS011;21805;51.022;4.782;2023-09-08T07:36:56;8.80;;;6.45;;
35681;SDS011;21805;51.022;4.782;2023-09-08T07:39:22;10.75;;;6.25;;
35681;SDS011;21805;51.022;4.782;2023-09-08T07:41:48;9.50;;;5.97;;
35681;SDS011;21805;51.022;4.782;2023-09-08T07:44:17;12.95;;;6.60;;
35681;SDS011;21805;51.022;4.782;2023-09-08T07:49:14;12.70;;;6.53;;
35681;SDS011;21805;51.022;4.782;2023-09-08T07:51:41;13.15;;;7.03;;
35681;SDS011;21805;51.022;4.782;2023-09-08T07:56:48;8.57;;;6.00;;
35681;SDS011;21805;51.022;4.782;2023-09-08T07:59:16;11.13;;;6.35;;
35681;SDS011;21805;51.022;4.782;2023-09-08T08:01:42;11.02;;;6.07;;
35681;SDS011;21805;51.022;4.782;2023-09-08T08:04:11;12.98;;;6.60;;
35681;SDS011;21805;51.022;4.782;2023-09-08T08:06:37;10.30;;;5.97;;
35681;SDS011;21805;51.022;4.782;2023-09-08T08:09:10;12.85;;;5.90;;
35681;SDS011;21805;51.022;4.782;2023-09-08T08:11:46;7.78;;;5.45;;
35681;SDS011;21805;51.022;4.782;2023-09-08T08:14:12;9.63;;;6.20;;
35681;SDS011;21805;51.022;4.782;2023-09-08T08:16:41;10.30;;;6.30;;
35681;SDS011;21805;51.022;4.782;2023-09-08T08:19:08;11.38;;;5.85;;
35681;SDS011;21805;51.022;4.782;2023-09-08T08:21:39;8.48;;;5.70;;
35681;SDS011;21805;51.022;4.782;2023-09-08T08:24:16;19.75;;;6.90;;
35681;SDS011;21805;51.022;4.782;2023-09-08T08:26:47;15.38;;;6.20;;
35681;SDS011;21805;51.022;4.782;2023-09-08T08:29:19;9.98;;;6.28;;
35681;SDS011;21805;51.022;4.782;2023-09-08T08:34:55;9.45;;;5.78;;
35681;SDS011;21805;51.022;4.782;2023-09-08T08:37:28;8.88;;;6.47;;
35681;SDS011;21805;51.022;4.782;2023-09-08T08:39:55;10.77;;;6.78;;
35681;SDS011;21805;51.022;4.782;2023-09-08T08:42:24;11.48;;;6.60;;
35681;SDS011;21805;51.022;4.782;2023-09-08T08:45:00;8.45;;;6.05;;
35681;SDS011;21805;51.022;4.782;2023-09-08T08:47:29;16.08;;;6.45;;
35681;SDS011;21805;51.022;4.782;2023-09-08T08:49:56;7.97;;;5.50;;
35681;SDS011;21805;51.022;4.782;2023-09-08T08:52:33;10.52;;;6.57;;
35681;SDS011;21805;51.022;4.782;2023-09-08T08:55:01;7.63;;;4.93;;
35681;SDS011;21805;51.022;4.782;2023-09-08T08:57:39;9.05;;;5.88;;
35681;SDS011;21805;51.022;4.782;2023-09-08T09:02:46;8.25;;;6.60;;
35681;SDS011;21805;51.022;4.782;2023-09-08T09:05:21;10.25;;;5.80;;
35681;SDS011;21805;51.022;4.782;2023-09-08T09:07:57;8.82;;;5.90;;
35681;SDS011;21805;51.022;4.782;2023-09-08T09:12:55;8.60;;;5.22;;
35681;SDS011;21805;51.022;4.782;2023-09-08T09:18:07;8.40;;;5.30;;
35681;SDS011;21805;51.022;4.782;2023-09-08T09:26:03;12.60;;;5.75;;
35681;SDS011;21805;51.022;4.782;2023-09-08T09:28:30;7.60;;;5.35;;
35681;SDS011;21805;51.022;4.782;2023-09-08T09:31:14;7.30;;;5.13;;
35681;SDS011;21805;51.022;4.782;2023-09-08T09:36:21;8.50;;;5.65;;
35681;SDS011;21805;51.022;4.782;2023-09-08T09:38:49;8.05;;;5.35;;
35681;SDS011;21805;51.022;4.782;2023-09-08T09:41:22;8.70;;;5.15;;
35681;SDS011;21805;51.022;4.782;2023-09-08T09:43:51;8.77;;;5.63;;
35681;SDS011;21805;51.022;4.782;2023-09-08T09:46:17;10.93;;;5.60;;
35681;SDS011;21805;51.022;4.782;2023-09-08T09:48:50;10.18;;;5.68;;
35681;SDS011;21805;51.022;4.782;2023-09-08T09:51:21;17.63;;;5.97;;
35681;SDS011;21805;51.022;4.782;2023-09-08T09:56:37;10.65;;;5.25;;
35681;SDS011;21805;51.022;4.782;2023-09-08T09:59:07;7.05;;;5.03;;
35681;SDS011;21805;51.022;4.782;2023-09-08T10:02:12;8.38;;;4.85;;
35681;SDS011;21805;51.022;4.782;2023-09-08T10:04:57;10.38;;;5.28;;
35681;SDS011;21805;51.022;4.782;2023-09-08T10:07:39;11.55;;;5.00;;
35681;SDS011;21805;51.022;4.782;2023-09-08T10:12:36;9.07;;;4.57;;
35681;SDS011;21805;51.022;4.782;2023-09-08T10:15:03;7.05;;;4.93;;
35681;SDS011;21805;51.022;4.782;2023-09-08T10:17:36;7.90;;;4.70;;
35681;SDS011;21805;51.022;4.782;2023-09-08T10:26:16;9.45;;;4.35;;
35681;SDS011;21805;51.022;4.782;2023-09-08T10:54:50;11.35;;;4.38;;
35681;SDS011;21805;51.022;4.782;2023-09-08T11:13:58;9.70;;;4.10;;
35681;SDS011;21805;51.022;4.782;2023-09-08T11:16:51;8.15;;;4.15;;
35681;SDS011;21805;51.022;4.782;2023-09-08T11:43:11;6.00;;;3.72;;
35681;SDS011;21805;51.022;4.782;2023-09-08T11:45:50;6.95;;;3.38;;
35681;SDS011;21805;51.022;4.782;2023-09-08T11:56:57;7.28;;;4.20;;
35681;SDS011;21805;51.022;4.782;2023-09-08T11:59:37;8.02;;;4.20;;
35681;SDS011;21805;51.022;4.782;2023-09-08T12:05:52;5.70;;;3.63;;
35681;SDS011;21805;51.022;4.782;2023-09-08T12:08:28;8.73;;;3.55;;
35681;SDS011;21805;51.022;4.782;2023-09-08T12:11:01;5.32;;;3.63;;
35681;SDS011;21805;51.022;4.782;2023-09-08T12:13:37;9.70;;;3.88;;
35681;SDS011;21805;51.022;4.782;2023-09-08T12:31:49;5.20;;;3.70;;
35681;SDS011;21805;51.022;4.782;2023-09-08T12:34:40;6.65;;;3.70;;
35681;SDS011;21805;51.022;4.782;2023-09-08T12:59:51;8.90;;;3.55;;
35681;SDS011;21805;51.022;4.782;2023-09-08T13:08:10;7.30;;;3.30;;
35681;SDS011;21805;51.022;4.782;2023-09-08T13:10:54;13.80;;;3.67;;
35681;SDS011;21805;51.022;4.782;2023-09-08T13:13:25;11.73;;;3.58;;
35681;SDS011;21805;51.022;4.782;2023-09-08T13:15:59;3.90;;;3.25;;
35681;SDS011;21805;51.022;4.782;2023-09-08T13:18:28;7.30;;;3.45;;
35681;SDS011;21805;51.022;4.782;2023-09-08T13:21:00;6.15;;;3.35;;
35681;SDS011;21805;51.022;4.782;2023-09-08T13:42:37;14.23;;;4.20;;
35681;SDS011;21805;51.022;4.782;2023-09-08T14:02:15;8.90;;;3.90;;
35681;SDS011;21805;51.022;4.782;2023-09-08T14:05:19;11.00;;;3.83;;
35681;SDS011;21805;51.022;4.782;2023-09-08T14:08:02;14.05;;;3.97;;
35681;SDS011;21805;51.022;4.782;2023-09-08T14:23:34;6.28;;;3.50;;
35681;SDS011;21805;51.022;4.782;2023-09-08T14:34:07;13.55;;;4.43;;
35681;SDS011;21805;51.022;4.782;2023-09-08T14:37:16;10.77;;;4.28;;
35681;SDS011;21805;51.022;4.782;2023-09-08T14:39:57;11.77;;;3.83;;
35681;SDS011;21805;51.022;4.782;2023-09-08T14:42:30;8.50;;;4.60;;
35681;SDS011;21805;51.022;4.782;2023-09-08T14:45:02;8.95;;;3.80;;
35681;SDS011;21805;51.022;4.782;2023-09-08T14:50:01;12.02;;;4.35;;
35681;SDS011;21805;51.022;4.782;2023-09-08T14:52:43;18.02;;;3.88;;
35681;SDS011;21805;51.022;4.782;2023-09-08T14:55:26;13.70;;;4.45;;
35681;SDS011;21805;51.022;4.782;2023-09-08T14:57:55;11.77;;;3.97;;
35681;SDS011;21805;51.022;4.782;2023-09-08T15:02:53;17.58;;;4.60;;
35681;SDS011;21805;51.022;4.782;2023-09-08T15:05:26;13.48;;;4.47;;
35681;SDS011;21805;51.022;4.782;2023-09-08T15:08:01;12.20;;;4.40;;
35681;SDS011;21805;51.022;4.782;2023-09-08T15:10:31;11.55;;;4.72;;
35681;SDS011;21805;51.022;4.782;2023-09-08T15:13:06;18.65;;;4.65;;
35681;SDS011;21805;51.022;4.782;2023-09-08T15:15:36;12.73;;;4.00;;
35681;SDS011;21805;51.022;4.782;2023-09-08T15:18:08;7.10;;;3.80;;
35681;SDS011;21805;51.022;4.782;2023-09-08T15:20:50;8.77;;;4.30;;
35681;SDS011;21805;51.022;4.782;2023-09-08T15:23:20;17.17;;;4.60;;
35681;SDS011;21805;51.022;4.782;2023-09-08T15:26:02;10.02;;;4.10;;
35681;SDS011;21805;51.022;4.782;2023-09-08T15:28:33;8.85;;;4.20;;
35681;SDS011;21805;51.022;4.782;2023-09-08T15:31:05;9.20;;;4.82;;
35681;SDS011;21805;51.022;4.782;2023-09-08T15:33:42;13.40;;;4.47;;
35681;SDS011;21805;51.022;4.782;2023-09-08T15:36:10;11.27;;;4.22;;
35681;SDS011;21805;51.022;4.782;2023-09-08T15:38:40;13.60;;;4.45;;
35681;SDS011;21805;51.022;4.782;2023-09-08T15:43:47;11.68;;;4.45;;
35681;SDS011;21805;51.022;4.782;2023-09-08T15:46:19;22.80;;;4.20;;
35681;SDS011;21805;51.022;4.782;2023-09-08T15:48:46;18.15;;;4.20;;
35681;SDS011;21805;51.022;4.782;2023-09-08T15:51:20;14.90;;;4.03;;
35681;SDS011;21805;51.022;4.782;2023-09-08T15:53:49;13.90;;;4.00;;
35681;SDS011;21805;51.022;4.782;2023-09-08T15:56:15;14.38;;;4.18;;
35681;SDS011;21805;51.022;4.782;2023-09-08T15:58:43;17.40;;;4.25;;
35681;SDS011;21805;51.022;4.782;2023-09-08T16:01:12;15.93;;;4.57;;
35681;SDS011;21805;51.022;4.782;2023-09-08T16:03:51;13.68;;;3.70;;
35681;SDS011;21805;51.022;4.782;2023-09-08T16:06:18;13.32;;;4.47;;
35681;SDS011;21805;51.022;4.782;2023-09-08T16:08:44;13.45;;;4.22;;
35681;SDS011;21805;51.022;4.782;2023-09-08T16:32:54;18.35;;;4.50;;
35681;SDS011;21805;51.022;4.782;2023-09-08T16:35:34;20.85;;;4.95;;
35681;SDS011;21805;51.022;4.782;2023-09-08T16:38:25;15.40;;;4.88;;
35681;SDS011;21805;51.022;4.782;2023-09-08T16:43:23;13.70;;;4.88;;
35681;SDS011;21805;51.022;4.782;2023-09-08T16:45:48;16.58;;;4.63;;
35681;SDS011;21805;51.022;4.782;2023-09-08T16:48:14;22.55;;;4.53;;
35681;SDS011;21805;51.022;4.782;2023-09-08T16:50:41;18.38;;;4.65;;
35681;SDS011;21805;51.022;4.782;2023-09-08T16:55:35;17.60;;;4.63;;
35681;SDS011;21805;51.022;4.782;2023-09-08T16:58:04;19.55;;;4.78;;
35681;SDS011;21805;51.022;4.782;2023-09-08T17:00:30;21.33;;;4.60;;
35681;SDS011;21805;51.022;4.782;2023-09-08T17:02:55;15.35;;;4.53;;
35681;SDS011;21805;51.022;4.782;2023-09-08T17:05:22;21.10;;;4.57;;
35681;SDS011;21805;51.022;4.782;2023-09-08T17:10:26;16.55;;;4.75;;
35681;SDS011;21805;51.022;4.782;2023-09-08T17:12:56;16.70;;;4.85;;
35681;SDS011;21805;51.022;4.782;2023-09-08T17:15:54;17.83;;;4.45;;
35681;SDS011;21805;51.022;4.782;2023-09-08T17:23:46;18.30;;;5.00;;
